createdAt,value
2023-04-05T00:01:13.828Z,99769.50
2023-04-05T00:03:41.183Z,99768.59
2023-04-05T00:06:08.185Z,99774.03
2023-04-05T00:08:34.917Z,99758.59
2023-04-05T00:11:01.534Z,99758.59
2023-04-05T00:13:28.131Z,99756.94
2023-04-05T00:15:57.973Z,99759.53
2023-04-05T00:18:25.699Z,99762.13
2023-04-05T00:20:53.061Z,99752.72
2023-04-05T00:23:21.443Z,99751.06
2023-04-05T00:25:48.612Z,99752.78
2023-04-05T00:28:15.719Z,99751.06
2023-04-05T00:30:42.662Z,99750.25
2023-04-05T00:33:09.590Z,99748.47
2023-04-05T00:35:36.388Z,99743.31
2023-04-05T00:38:02.983Z,99746.81
2023-04-05T00:40:29.617Z,99747.03
2023-04-05T00:42:56.245Z,99745.31
2023-04-05T00:45:22.951Z,99741.00
2023-04-05T00:47:49.939Z,99741.84
2023-04-05T00:50:16.785Z,99739.38
2023-04-05T00:52:44.062Z,99739.41
2023-04-05T00:55:11.234Z,99735.97
2023-04-05T00:57:39.333Z,99738.63
2023-04-05T01:00:09.556Z,99735.19
2023-04-05T01:02:46.985Z,99738.69
2023-04-05T01:05:25.096Z,99734.31
2023-04-05T01:08:08.155Z,99735.97
2023-04-05T01:10:39.488Z,99743.00
2023-04-05T01:13:06.733Z,99742.34
2023-04-05T01:15:33.411Z,99743.28
2023-04-05T01:18:02.296Z,99746.75
2023-04-05T01:20:34.536Z,99731.22
2023-04-05T01:23:31.093Z,99733.00
2023-04-05T01:26:15.975Z,99730.66
2023-04-05T01:28:45.882Z,99729.03
2023-04-05T01:31:26.525Z,99722.13
2023-04-05T01:34:02.354Z,99716.91
2023-04-05T01:36:40.979Z,99729.06
2023-04-05T01:39:11.827Z,99725.66
2023-04-05T01:41:40.414Z,99724.00
2023-04-05T01:44:07.696Z,99729.19
2023-04-05T01:46:34.565Z,99717.13
2023-04-05T01:49:01.254Z,99706.81
2023-04-05T01:51:28.107Z,99706.91
2023-04-05T01:53:54.910Z,99712.09
2023-04-05T01:56:21.555Z,99710.50
2023-04-05T01:58:48.292Z,99705.38
2023-04-05T02:01:15.118Z,99707.13
2023-04-05T02:03:42.107Z,99708.09
2023-04-05T02:06:08.883Z,99713.34
2023-04-05T02:08:35.615Z,99710.78
2023-04-05T02:11:02.276Z,99702.19
2023-04-05T02:13:28.932Z,99697.06
2023-04-05T02:15:55.595Z,99696.28
2023-04-05T02:18:22.596Z,99699.78
2023-04-05T02:20:50.770Z,99698.91
2023-04-05T02:23:20.172Z,99696.38
2023-04-05T02:25:47.182Z,99690.56
2023-04-05T02:28:13.781Z,99694.09
2023-04-05T02:30:40.635Z,99698.38
2023-04-05T02:33:09.708Z,99699.19
2023-04-05T02:35:36.665Z,99694.00
2023-04-05T02:38:04.877Z,99692.34
2023-04-05T02:40:32.345Z,99694.16
2023-04-05T02:42:59.035Z,99702.91
2023-04-05T02:45:27.909Z,99707.31
2023-04-05T02:47:55.537Z,99717.72
2023-04-05T02:50:23.567Z,99708.22
2023-04-05T02:52:50.773Z,99708.97
2023-04-05T02:55:17.803Z,99705.47
2023-04-05T02:57:46.642Z,99709.81
2023-04-05T03:00:14.027Z,99708.09
2023-04-05T03:02:40.764Z,99722.81
2023-04-05T03:05:08.205Z,99716.78
2023-04-05T03:07:35.589Z,99715.16
2023-04-05T03:10:02.766Z,99707.38
2023-04-05T03:12:29.383Z,99713.41
2023-04-05T03:14:56.072Z,99716.91
2023-04-05T03:17:22.828Z,99710.91
2023-04-05T03:19:49.514Z,99704.88
2023-04-05T03:22:16.246Z,99708.34
2023-04-05T03:24:42.969Z,99706.63
2023-04-05T03:27:09.628Z,99704.97
2023-04-05T03:29:36.225Z,99699.81
2023-04-05T03:32:02.889Z,99696.41
2023-04-05T03:34:29.546Z,99699.88
2023-04-05T03:36:56.259Z,99695.66
2023-04-05T03:39:22.929Z,99707.69
2023-04-05T03:41:49.562Z,99703.41
2023-04-05T03:44:16.300Z,99694.78
2023-04-05T03:46:44.161Z,99693.09
2023-04-05T03:49:10.931Z,99693.19
2023-04-05T03:51:37.600Z,99694.94
2023-04-05T03:54:05.381Z,99688.09
2023-04-05T03:56:33.065Z,99688.13
2023-04-05T03:58:59.772Z,99689.84
2023-04-05T04:01:26.466Z,99690.69
2023-04-05T04:03:53.098Z,99689.88
2023-04-05T04:06:19.853Z,99695.09
2023-04-05T04:08:46.555Z,99690.75
2023-04-05T04:11:13.347Z,99684.63
2023-04-05T04:13:39.966Z,99690.72
2023-04-05T04:16:06.708Z,99683.00
2023-04-05T04:18:33.629Z,99692.63
2023-04-05T04:21:06.953Z,99695.28
2023-04-05T04:23:34.688Z,99695.25
2023-04-05T04:26:01.868Z,99685.75
2023-04-05T04:28:29.316Z,99685.75
2023-04-05T04:30:56.006Z,99678.03
2023-04-05T04:33:22.658Z,99687.59
2023-04-05T04:35:49.371Z,99678.09
2023-04-05T04:38:18.996Z,99678.09
2023-04-05T04:40:50.958Z,99678.97
2023-04-05T04:43:17.792Z,99679.84
2023-04-05T04:45:48.269Z,99679.91
2023-04-05T04:48:16.899Z,99685.06
2023-04-05T04:50:45.448Z,99684.22
2023-04-05T04:53:13.801Z,99685.94
2023-04-05T04:55:43.606Z,99689.34
2023-04-05T04:58:12.145Z,99680.69
2023-04-05T05:00:41.016Z,99683.31
2023-04-05T05:03:08.679Z,99675.63
2023-04-05T05:05:35.497Z,99676.50
2023-04-05T05:08:02.213Z,99677.41
2023-04-05T05:10:28.942Z,99672.22
2023-04-05T05:12:55.706Z,99674.84
2023-04-05T05:15:22.458Z,99673.13
2023-04-05T05:17:53.181Z,99673.94
2023-04-05T05:20:20.055Z,99671.31
2023-04-05T05:22:46.716Z,99673.03
2023-04-05T05:25:13.523Z,99675.59
2023-04-05T05:27:40.433Z,99673.03
2023-04-05T05:30:07.575Z,99680.72
2023-04-05T05:32:34.233Z,99681.53
2023-04-05T05:35:01.059Z,99682.34
2023-04-05T05:37:32.266Z,99681.38
2023-04-05T05:39:59.621Z,99686.44
2023-04-05T05:42:27.400Z,99687.25
2023-04-05T05:44:54.190Z,99682.03
2023-04-05T05:47:21.084Z,99689.81
2023-04-05T05:49:49.706Z,99692.44
2023-04-05T05:52:17.027Z,99692.50
2023-04-05T05:54:43.838Z,99691.72
2023-04-05T05:57:10.468Z,99688.22
2023-04-05T05:59:37.257Z,99689.81
2023-04-05T06:02:04.125Z,99689.69
2023-04-05T06:04:30.907Z,99696.63
2023-04-05T06:06:58.243Z,99691.38
2023-04-05T06:09:25.657Z,99695.66
2023-04-05T06:11:56.719Z,99692.09
2023-04-05T06:14:25.228Z,99698.03
2023-04-05T06:16:52.232Z,99690.13
2023-04-05T06:19:19.009Z,99696.97
2023-04-05T06:21:45.829Z,99694.31
2023-04-05T06:24:12.572Z,99692.44
2023-04-05T06:26:39.288Z,99688.00
2023-04-05T06:29:06.331Z,99683.56
2023-04-05T06:31:54.494Z,99695.59
2023-04-05T06:34:21.346Z,99691.19
2023-04-05T06:36:48.022Z,99690.16
2023-04-05T06:39:14.901Z,99686.53
2023-04-05T06:41:41.637Z,99687.28
2023-04-05T06:44:09.161Z,99685.38
2023-04-05T06:46:35.929Z,99678.38
2023-04-05T06:49:04.095Z,99687.72
2023-04-05T06:51:30.968Z,99684.91
2023-04-05T06:53:57.691Z,99682.25
2023-04-05T06:56:24.377Z,99685.63
2023-04-05T06:58:51.471Z,99684.63
2023-04-05T07:01:18.675Z,99676.72
2023-04-05T07:03:45.581Z,99679.03
2023-04-05T07:06:12.720Z,99685.69
2023-04-05T07:08:39.491Z,99680.03
2023-04-05T07:11:06.208Z,99675.13
2023-04-05T07:13:32.847Z,99672.75
2023-04-05T07:16:01.536Z,99668.38
2023-04-05T07:18:30.118Z,99668.34
2023-04-05T07:21:00.876Z,99669.91
2023-04-05T07:23:28.705Z,99668.81
2023-04-05T07:26:04.488Z,99656.75
2023-04-05T07:28:33.322Z,99657.44
2023-04-05T07:31:00.052Z,99648.56
2023-04-05T07:33:27.228Z,99654.31
2023-04-05T07:35:54.840Z,99644.47
2023-04-05T07:38:21.817Z,99645.09
2023-04-05T07:40:49.949Z,99651.34
2023-04-05T07:43:17.274Z,99646.13
2023-04-05T07:45:44.109Z,99643.28
2023-04-05T07:48:11.036Z,99640.69
2023-04-05T07:50:40.599Z,99637.50
2023-04-05T07:53:08.245Z,99641.03
2023-04-05T07:55:38.038Z,99636.97
2023-04-05T07:58:04.650Z,99635.63
2023-04-05T08:00:31.529Z,99635.41
2023-04-05T08:03:01.859Z,99635.34
2023-04-05T08:05:29.463Z,99639.81
2023-04-05T08:07:58.164Z,99633.38
2023-04-05T08:10:25.699Z,99636.28
2023-04-05T08:12:52.455Z,99631.75
2023-04-05T08:15:19.116Z,99630.44
2023-04-05T08:17:45.760Z,99624.59
2023-04-05T08:20:12.949Z,99624.47
2023-04-05T08:22:39.536Z,99623.69
2023-04-05T08:25:06.944Z,99622.91
2023-04-05T08:27:33.524Z,99622.63
2023-04-05T08:30:00.184Z,99620.53
2023-04-05T08:32:26.875Z,99618.25
2023-04-05T08:34:53.579Z,99614.03
2023-04-05T08:37:20.175Z,99622.88
2023-04-05T08:39:46.798Z,99608.59
2023-04-05T08:42:19.029Z,99610.94
2023-04-05T08:44:47.031Z,99614.41
2023-04-05T08:47:19.119Z,99607.03
2023-04-05T08:49:46.202Z,99613.09
2023-04-05T08:52:13.017Z,99602.41
2023-04-05T08:54:39.937Z,99608.44
2023-04-05T08:57:08.158Z,99610.56
2023-04-05T08:59:38.545Z,99613.81
2023-04-05T09:02:14.535Z,99609.69
2023-04-05T09:04:46.691Z,99607.13
2023-04-05T09:07:17.628Z,99604.97
2023-04-05T09:09:49.507Z,99603.13
2023-04-05T09:12:16.154Z,99597.13
2023-04-05T09:14:43.954Z,99602.75
2023-04-05T09:17:11.342Z,99600.59
2023-04-05T09:19:38.154Z,99599.84
2023-04-05T09:22:06.604Z,99600.22
2023-04-05T09:24:41.931Z,99591.47
2023-04-05T09:27:12.718Z,99591.47
2023-04-05T09:29:41.077Z,99600.50
2023-04-05T09:32:09.212Z,99590.84
2023-04-05T09:34:39.206Z,99590.63
2023-04-05T09:37:14.192Z,99587.38
2023-04-05T09:39:40.957Z,99587.44
2023-04-05T09:42:13.115Z,99589.47
2023-04-05T09:44:52.012Z,99589.50
2023-04-05T09:47:20.514Z,99583.69
2023-04-05T09:49:47.396Z,99582.75
2023-04-05T09:52:20.046Z,99584.41
2023-04-05T09:54:46.933Z,99585.88
2023-04-05T09:57:15.583Z,99585.25
2023-04-05T09:59:42.336Z,99575.69
2023-04-05T10:02:11.696Z,99577.53
2023-04-05T10:04:45.820Z,99575.22
2023-04-05T10:07:15.482Z,99585.63
2023-04-05T10:09:44.008Z,99579.06
2023-04-05T10:12:14.996Z,99577.19
2023-04-05T10:14:41.582Z,99579.59
2023-04-05T10:17:29.899Z,99578.56
2023-04-05T10:20:16.073Z,99578.34
2023-04-05T10:22:51.871Z,99565.34
2023-04-05T10:25:21.440Z,99571.91
2023-04-05T10:27:52.193Z,99571.28
2023-04-05T10:30:19.089Z,99559.94
2023-04-05T10:33:10.602Z,99560.88
2023-04-05T10:35:40.479Z,99564.75
2023-04-05T10:38:23.256Z,99554.16
2023-04-05T10:40:57.434Z,99559.09
2023-04-05T10:43:27.257Z,99555.69
2023-04-05T10:45:55.779Z,99556.38
2023-04-05T10:48:49.223Z,99544.50
2023-04-05T10:51:16.494Z,99544.47
2023-04-05T10:53:46.396Z,99538.00
2023-04-05T10:56:14.228Z,99538.47
2023-04-05T10:58:43.101Z,99529.03
2023-04-05T11:01:10.686Z,99525.81
2023-04-05T11:03:54.497Z,99537.34
2023-04-05T11:06:22.886Z,99521.56
2023-04-05T11:08:53.733Z,99513.81
2023-04-05T11:11:22.990Z,99516.78
2023-04-05T11:13:51.115Z,99511.31
2023-04-05T11:16:17.831Z,99511.91
2023-04-05T11:18:47.201Z,99511.22
2023-04-05T11:21:21.891Z,99507.22
2023-04-05T11:24:07.666Z,99508.44
2023-04-05T11:26:54.500Z,99504.25
2023-04-05T11:29:51.056Z,99504.09
2023-04-05T11:32:18.045Z,99508.03
2023-04-05T11:34:45.292Z,99504.47
2023-04-05T11:37:15.731Z,99499.94
2023-04-05T11:39:42.375Z,99486.59
2023-04-05T11:42:12.590Z,99494.09
2023-04-05T11:44:48.294Z,99492.31
2023-04-05T11:47:23.024Z,99492.88
2023-04-05T11:49:51.250Z,99488.34
2023-04-05T11:52:21.283Z,99480.25
2023-04-05T11:54:49.295Z,99479.06
2023-04-05T11:57:24.050Z,99480.19
2023-04-05T11:59:52.183Z,99472.19
2023-04-05T12:02:19.484Z,99475.56
2023-04-05T12:04:54.179Z,99471.63
2023-04-05T12:07:21.065Z,99460.25
2023-04-05T12:10:01.913Z,99456.00
2023-04-05T12:12:33.347Z,99451.13
2023-04-05T12:15:01.563Z,99447.16
2023-04-05T12:17:51.129Z,99453.06
2023-04-05T12:20:25.050Z,99444.59
2023-04-05T12:22:53.894Z,99442.38
2023-04-05T12:25:21.269Z,99436.22
2023-04-05T12:27:48.113Z,99439.31
2023-04-05T12:30:16.541Z,99434.81
2023-04-05T12:32:45.041Z,99428.03
2023-04-05T12:35:24.403Z,99427.16
2023-04-05T12:37:51.154Z,99431.91
2023-04-05T12:40:23.134Z,99420.81
2023-04-05T12:42:50.540Z,99414.50
2023-04-05T12:45:18.615Z,99417.13
2023-04-05T12:47:56.354Z,99413.78
2023-04-05T12:50:28.912Z,99406.75
2023-04-05T12:52:57.407Z,99414.22
2023-04-05T12:55:24.857Z,99399.63
2023-04-05T12:58:04.833Z,99396.00
2023-04-05T13:00:32.797Z,99393.28
2023-04-05T13:02:59.977Z,99381.00
2023-04-05T13:05:28.876Z,99387.16
2023-04-05T13:07:56.116Z,99381.06
2023-04-05T13:10:24.807Z,99380.28
2023-04-05T13:12:51.536Z,99386.22
2023-04-05T13:15:18.678Z,99380.50
2023-04-05T13:17:45.840Z,99376.88
2023-04-05T13:20:12.666Z,99379.91
2023-04-05T13:22:39.708Z,99367.28
2023-04-05T13:25:06.621Z,99364.78
2023-04-05T13:27:33.316Z,99374.41
2023-04-05T13:30:00.329Z,99372.50
2023-04-05T13:32:27.520Z,99374.28
2023-04-05T13:34:54.123Z,99368.94
2023-04-05T13:37:20.866Z,99354.94
2023-04-05T13:39:47.458Z,99364.88
2023-04-05T13:42:14.129Z,99348.09
2023-04-05T13:44:40.876Z,99346.06
2023-04-05T13:47:07.721Z,99326.84
2023-04-05T13:49:34.474Z,99325.13
2023-04-05T13:52:01.218Z,99340.81
2023-04-05T13:54:27.861Z,99337.75
2023-04-05T13:56:54.591Z,99328.88
2023-04-05T13:59:21.380Z,99327.25
2023-04-05T14:01:49.507Z,99324.00
2023-04-05T14:04:16.671Z,99320.03
2023-04-05T14:06:44.837Z,99316.81
2023-04-05T14:09:11.656Z,99325.63
2023-04-05T14:11:38.895Z,99329.50
2023-04-05T14:14:05.687Z,99315.94
2023-04-05T14:16:32.513Z,99320.75
2023-04-05T14:18:59.246Z,99315.97
2023-04-05T14:21:26.477Z,99313.88
2023-04-05T14:23:56.996Z,99303.94
2023-04-05T14:26:26.260Z,99310.06
2023-04-05T14:28:53.881Z,99308.44
2023-04-05T14:31:20.838Z,99299.75
2023-04-05T14:33:47.545Z,99303.75
2023-04-05T14:36:14.206Z,99308.63
2023-04-05T14:38:40.917Z,99297.94
2023-04-05T14:41:08.546Z,99299.88
2023-04-05T14:43:35.659Z,99290.78
2023-04-05T14:46:02.453Z,99298.28
2023-04-05T14:48:30.387Z,99310.47
2023-04-05T14:50:57.236Z,99306.38
2023-04-05T14:53:23.924Z,99302.38
2023-04-05T14:55:50.787Z,99297.66
2023-04-05T14:58:17.493Z,99303.53
2023-04-05T15:00:44.909Z,99296.94
2023-04-05T15:03:11.911Z,99305.91
2023-04-05T15:05:38.829Z,99300.53
2023-04-05T15:08:05.797Z,99297.34
2023-04-05T15:10:33.787Z,99294.28
2023-04-05T15:13:00.489Z,99292.97
2023-04-05T15:15:27.246Z,99286.69
2023-04-05T15:17:53.980Z,99277.91
2023-04-05T15:20:20.699Z,99282.59
2023-04-05T15:22:47.490Z,99289.56
2023-04-05T15:25:14.204Z,99290.50
2023-04-05T15:27:41.040Z,99291.94
2023-04-05T15:30:08.565Z,99288.47
2023-04-05T15:32:35.411Z,99294.69
2023-04-05T15:35:02.913Z,99291.06
2023-04-05T15:37:29.577Z,99280.09
2023-04-05T15:39:56.312Z,99289.16
2023-04-05T15:42:23.158Z,99287.94
2023-04-05T15:44:51.205Z,99286.97
2023-04-05T15:47:18.486Z,99286.75
2023-04-05T15:49:45.428Z,99288.91
2023-04-05T15:52:12.164Z,99285.53
2023-04-05T15:54:38.829Z,99279.94
2023-04-05T15:57:05.533Z,99279.50
2023-04-05T15:59:32.241Z,99283.59
2023-04-05T16:01:59.082Z,99284.28
2023-04-05T16:04:27.916Z,99280.81
2023-04-05T16:06:55.104Z,99286.25
2023-04-05T16:09:22.126Z,99282.84
2023-04-05T16:11:49.215Z,99281.41
2023-04-05T16:14:16.045Z,99279.38
2023-04-05T16:16:53.199Z,99278.72
2023-04-05T16:19:23.478Z,99283.22
2023-04-05T16:21:51.093Z,99280.75
2023-04-05T16:24:17.813Z,99277.84
2023-04-05T16:26:44.474Z,99275.41
2023-04-05T16:29:11.135Z,99284.78
2023-04-05T16:31:38.329Z,99285.72
2023-04-05T16:34:04.989Z,99284.84
2023-04-05T16:36:31.773Z,99278.63
2023-04-05T16:38:58.393Z,99286.84
2023-04-05T16:41:25.256Z,99287.41
2023-04-05T16:43:52.362Z,99289.06
2023-04-05T16:46:19.186Z,99289.19
2023-04-05T16:48:46.250Z,99287.16
2023-04-05T16:51:13.203Z,99287.50
2023-04-05T16:53:39.939Z,99288.31
2023-04-05T16:56:06.783Z,99279.66
2023-04-05T16:58:33.565Z,99279.19
2023-04-05T17:01:00.662Z,99288.28
2023-04-05T17:03:27.503Z,99286.66
2023-04-05T17:05:54.341Z,99285.50
2023-04-05T17:08:21.056Z,99287.97
2023-04-05T17:10:47.836Z,99286.91
2023-04-05T17:13:18.183Z,99283.50
2023-04-05T17:15:45.209Z,99292.66
2023-04-05T17:18:12.330Z,99286.63
2023-04-05T17:20:39.170Z,99287.19
2023-04-05T17:23:05.972Z,99280.81
2023-04-05T17:25:32.754Z,99290.69
2023-04-05T17:27:59.494Z,99291.09
2023-04-05T17:30:26.374Z,99292.06
2023-04-05T17:32:53.508Z,99283.47
2023-04-05T17:35:20.623Z,99285.47
2023-04-05T17:37:47.797Z,99294.06
2023-04-05T17:40:15.188Z,99286.16
2023-04-05T17:42:42.218Z,99287.56
2023-04-05T17:45:09.277Z,99295.34
2023-04-05T17:47:36.320Z,99292.13
2023-04-05T17:50:03.135Z,99294.38
2023-04-05T17:52:29.944Z,99296.22
2023-04-05T17:54:56.642Z,99303.94
2023-04-05T17:57:23.557Z,99304.97
2023-04-05T17:59:50.338Z,99314.59
2023-04-05T18:02:17.061Z,99313.84
2023-04-05T18:04:44.430Z,99314.75
2023-04-05T18:07:12.929Z,99309.72
2023-04-05T18:09:42.047Z,99311.88
2023-04-05T18:12:09.463Z,99308.50
2023-04-05T18:14:39.049Z,99310.56
2023-04-05T18:17:11.859Z,99321.09
2023-04-05T18:19:38.576Z,99317.69
2023-04-05T18:22:05.481Z,99319.06
2023-04-05T18:24:32.524Z,99330.59
2023-04-05T18:26:59.216Z,99321.44
2023-04-05T18:29:29.417Z,99325.16
2023-04-05T18:31:56.723Z,99329.06
2023-04-05T18:34:24.084Z,99335.34
2023-04-05T18:36:51.381Z,99327.88
2023-04-05T18:39:20.136Z,99333.81
2023-04-05T18:41:47.368Z,99335.91
2023-04-05T18:44:14.150Z,99332.75
2023-04-05T18:46:41.294Z,99345.44
2023-04-05T18:49:08.350Z,99345.94
2023-04-05T18:51:35.470Z,99350.72
2023-04-05T18:54:03.262Z,99358.94
2023-04-05T18:56:30.098Z,99360.78
2023-04-05T18:58:56.947Z,99361.25
2023-04-05T19:01:23.809Z,99362.25
2023-04-05T19:03:51.053Z,99367.28
2023-04-05T19:06:17.964Z,99367.44
2023-04-05T19:08:44.747Z,99369.84
2023-04-05T19:11:13.744Z,99371.66
2023-04-05T19:13:43.998Z,99374.84
2023-04-05T19:16:10.918Z,99376.78
2023-04-05T19:18:37.950Z,99378.38
2023-04-05T19:21:05.203Z,99376.53
2023-04-05T19:23:32.690Z,99382.84
2023-04-05T19:25:59.398Z,99374.38
2023-04-05T19:28:27.295Z,99378.38
2023-04-05T19:30:54.691Z,99383.81
2023-04-05T19:33:21.997Z,99387.59
2023-04-05T19:35:48.972Z,99378.31
2023-04-05T19:38:15.880Z,99375.84
2023-04-05T19:40:42.884Z,99380.47
2023-04-05T19:43:10.178Z,99385.00
2023-04-05T19:46:11.673Z,99378.44
2023-04-05T19:48:41.217Z,99387.50
2023-04-05T19:51:11.965Z,99383.25
2023-04-05T19:53:44.428Z,99374.81
2023-04-05T19:56:15.173Z,99375.25
2023-04-05T19:58:42.540Z,99375.59
2023-04-05T20:01:09.559Z,99371.63
2023-04-05T20:03:41.369Z,99375.44
2023-04-05T20:06:11.289Z,99385.38
2023-04-05T20:08:40.752Z,99385.69
2023-04-05T20:11:17.847Z,99382.63
2023-04-05T20:13:47.938Z,99378.78
2023-04-05T20:16:15.986Z,99379.84
2023-04-05T20:18:49.402Z,99377.56
2023-04-05T20:21:16.567Z,99370.81
2023-04-05T20:23:44.584Z,99372.66
2023-04-05T20:26:16.100Z,99367.56
2023-04-05T20:28:54.232Z,99365.97
2023-04-05T20:31:22.545Z,99365.22
2023-04-05T20:33:57.074Z,99359.47
2023-04-05T20:36:34.836Z,99367.66
2023-04-05T20:39:03.610Z,99367.03
2023-04-05T20:41:31.467Z,99368.97
2023-04-05T20:43:59.278Z,99358.06
2023-04-05T20:46:26.315Z,99357.47
2023-04-05T20:48:54.235Z,99352.63
2023-04-05T20:51:21.049Z,99353.72
2023-04-05T20:53:48.367Z,99347.03
2023-04-05T20:56:15.078Z,99346.31
2023-04-05T20:58:42.105Z,99346.56
2023-04-05T21:01:09.833Z,99344.25
2023-04-05T21:03:39.790Z,99338.44
2023-04-05T21:06:08.491Z,99339.41
2023-04-05T21:08:36.641Z,99343.97
2023-04-05T21:11:03.999Z,99343.25
2023-04-05T21:13:30.773Z,99345.09
2023-04-05T21:15:58.349Z,99348.69
2023-04-05T21:18:25.605Z,99348.03
2023-04-05T21:20:53.978Z,99344.72
2023-04-05T21:23:23.559Z,99348.47
2023-04-05T21:25:50.410Z,99348.00
2023-04-05T21:28:17.265Z,99352.41
2023-04-05T21:30:44.240Z,99348.28
2023-04-05T21:33:11.394Z,99356.09
2023-04-05T21:35:38.307Z,99348.22
2023-04-05T21:38:05.644Z,99353.53
2023-04-05T21:40:32.590Z,99345.88
2023-04-05T21:43:00.139Z,99345.25
2023-04-05T21:45:27.588Z,99347.16
2023-04-05T21:47:54.506Z,99351.56
2023-04-05T21:50:21.824Z,99351.78
2023-04-05T21:52:48.657Z,99351.06
2023-04-05T21:55:15.930Z,99344.38
2023-04-05T21:57:42.553Z,99352.34
2023-04-05T22:00:12.797Z,99358.47
2023-04-05T22:02:39.746Z,99354.25
2023-04-05T22:05:07.855Z,99361.31
2023-04-05T22:07:35.708Z,99361.41
2023-04-05T22:10:03.757Z,99358.91
2023-04-05T22:12:30.762Z,99362.41
2023-04-05T22:14:57.472Z,99360.03
2023-04-05T22:17:24.341Z,99365.34
2023-04-05T22:19:51.100Z,99352.47
2023-04-05T22:22:17.934Z,99362.16
2023-04-05T22:24:45.101Z,99362.38
2023-04-05T22:27:12.356Z,99359.00
2023-04-05T22:29:39.550Z,99354.06
2023-04-05T22:32:06.558Z,99350.66
2023-04-05T22:34:33.306Z,99363.38
2023-04-05T22:37:00.576Z,99357.28
2023-04-05T22:39:27.842Z,99358.16
2023-04-05T22:41:54.904Z,99359.09
2023-04-05T22:44:22.053Z,99356.56
2023-04-05T22:46:48.847Z,99357.47
2023-04-05T22:49:15.518Z,99351.56
2023-04-05T22:51:42.334Z,99350.75
2023-04-05T22:54:09.043Z,99350.63
2023-04-05T22:56:36.034Z,99354.78
2023-04-05T22:59:02.795Z,99359.13
2023-04-05T23:01:29.583Z,99355.84
2023-04-05T23:03:56.594Z,99355.78
2023-04-05T23:06:23.281Z,99353.28
2023-04-05T23:08:50.023Z,99353.47
2023-04-05T23:11:16.719Z,99344.97
2023-04-05T23:13:43.432Z,99346.84
2023-04-05T23:16:10.293Z,99350.44
2023-04-05T23:18:37.070Z,99351.50
2023-04-05T23:21:03.917Z,99352.44
2023-04-05T23:23:30.750Z,99347.38
2023-04-05T23:25:57.728Z,99343.75
2023-04-05T23:28:24.493Z,99342.97
2023-04-05T23:30:51.198Z,99343.78
2023-04-05T23:33:17.848Z,99335.25
2023-04-05T23:35:44.589Z,99337.03
2023-04-05T23:38:11.550Z,99331.94
2023-04-05T23:40:38.289Z,99332.13
2023-04-05T23:43:05.000Z,99339.34
2023-04-05T23:45:32.601Z,99334.31
2023-04-05T23:47:59.325Z,99333.31
2023-04-05T23:50:26.278Z,99329.03
2023-04-05T23:52:53.140Z,99329.34
2023-04-05T23:55:21.521Z,99322.50
2023-04-05T23:57:48.330Z,99324.19
